Time;durP1;ratioP1;P1;durP2;ratioP2;P2;SDS_P1;SDS_P2;PMS_P1;PMS_P2;Temp;Humidity;BMP_temperature;BMP_pressure;BME280_temperature;BME280_humidity;BME280_pressure;Samples;Min_cycle;Max_cycle;Signal;HPM_P1;HPM_P2
2022/01/08 00:02:03;;;;;;;0.77;0.20;;;20.80;47.40;;;;;;5050658;28;20060;-86
2022/01/08 00:04:29;;;;;;;0.70;0.20;;;20.80;47.40;;;;;;5049994;28;20052;-86
2022/01/08 00:06:56;;;;;;;0.43;0.20;;;20.80;47.40;;;;;;5053637;28;20036;-86
2022/01/08 00:09:21;;;;;;;0.75;0.20;;;20.80;47.40;;;;;;5051508;28;20060;-86
2022/01/08 00:11:47;;;;;;;0.35;0.20;;;20.80;47.40;;;;;;5052975;28;20048;-86
2022/01/08 00:14:14;;;;;;;0.82;0.13;;;20.80;47.40;;;;;;5053532;28;20791;-86
2022/01/08 00:16:40;;;;;;;1.05;0.28;;;20.80;47.40;;;;;;5053380;28;20419;-86
2022/01/08 00:19:05;;;;;;;1.02;0.20;;;20.80;47.40;;;;;;5053204;28;20037;-87
2022/01/08 00:21:31;;;;;;;0.90;0.30;;;20.70;47.30;;;;;;5053767;28;20044;-86
2022/01/08 00:23:56;;;;;;;0.98;0.25;;;20.70;47.30;;;;;;5053366;28;20087;-87
2022/01/08 00:26:22;;;;;;;0.93;0.20;;;20.80;47.40;;;;;;5052762;28;20048;-86
2022/01/08 00:28:47;;;;;;;0.75;0.17;;;21.00;47.50;;;;;;5053356;28;20491;-86
2022/01/08 00:31:13;;;;;;;0.93;0.20;;;20.70;47.30;;;;;;5053739;28;20044;-87
2022/01/08 00:33:39;;;;;;;1.75;0.60;;;20.70;47.30;;;;;;5052839;28;20128;-87
2022/01/08 00:36:05;;;;;;;0.55;0.10;;;20.70;47.30;;;;;;5053467;28;20075;-86
2022/01/08 00:38:31;;;;;;;0.52;0.20;;;20.70;47.30;;;;;;5053407;28;20685;-86
2022/01/08 00:40:56;;;;;;;0.45;0.20;;;21.50;47.80;;;;;;5052616;28;20051;-86
2022/01/08 00:43:22;;;;;;;0.45;0.20;;;20.70;47.30;;;;;;5050577;28;20086;-86
2022/01/08 00:45:47;;;;;;;0.77;0.20;;;20.70;47.40;;;;;;5053018;28;20048;-86
2022/01/08 00:48:13;;;;;;;1.35;0.30;;;21.60;47.80;;;;;;5052441;28;20051;-86
2022/01/08 00:50:38;;;;;;;0.60;0.20;;;20.70;47.40;;;;;;5052893;28;20438;-86
2022/01/08 00:53:04;;;;;;;0.55;0.20;;;20.70;47.40;;;;;;5052471;28;20045;-86
2022/01/08 00:55:30;;;;;;;0.98;0.30;;;20.70;47.40;;;;;;5053088;28;20131;-87
2022/01/08 00:57:55;;;;;;;1.33;0.30;;;20.70;47.40;;;;;;5053021;28;20044;-87
2022/01/08 01:00:21;;;;;;;0.93;0.30;;;20.70;47.50;;;;;;5052042;28;20064;-86
2022/01/08 01:02:46;;;;;;;1.15;0.30;;;20.70;47.40;;;;;;5051732;28;20048;-86
2022/01/08 01:05:12;;;;;;;0.95;0.28;;;20.70;47.40;;;;;;5052520;28;20105;-86
2022/01/08 01:07:38;;;;;;;0.55;0.15;;;20.60;47.70;;;;;;5051852;28;20044;-86
2022/01/08 01:10:04;;;;;;;1.15;0.20;;;20.70;47.50;;;;;;5022778;23;20597;-87
2022/01/08 01:12:30;;;;;;;0.80;0.20;;;20.70;47.50;;;;;;5009729;28;20041;-87
2022/01/08 01:14:56;;;;;;;1.08;0.30;;;21.70;48.00;;;;;;5009199;28;20501;-86
2022/01/08 01:17:21;;;;;;;0.60;0.20;;;20.60;47.50;;;;;;4978375;28;20140;-87
2022/01/08 01:19:48;;;;;;;0.70;0.25;;;20.70;47.50;;;;;;5000974;28;20128;-86
2022/01/08 01:22:17;;;;;;;0.68;0.28;;;20.70;47.50;;;;;;5008427;28;20049;-87
2022/01/08 01:24:43;;;;;;;0.60;0.15;;;20.70;47.60;;;;;;5009634;28;20057;-87
2022/01/08 01:27:17;;;;;;;0.38;0.15;;;20.70;47.60;;;;;;5009556;28;20061;-87
2022/01/08 01:30:01;;;;;;;0.35;0.20;;;20.70;47.50;;;;;;5008837;28;20050;-87
2022/01/08 01:46:59;;;;;;;1.23;0.28;;;20.70;47.50;;;;;;4992714;28;20409;-87
2022/01/08 01:48:55;;;;;;;0.47;0.15;;;20.70;47.60;;;;;;5009021;28;20050;-86
2022/01/08 01:51:22;;;;;;;0.85;0.20;;;20.70;47.50;;;;;;5016410;23;20049;-86
2022/01/08 01:53:48;;;;;;;0.85;0.30;;;20.70;47.50;;;;;;4992851;28;20046;-86
2022/01/08 01:56:20;;;;;;;0.35;0.13;;;20.70;47.50;;;;;;4991986;28;20405;-86
2022/01/08 01:58:46;;;;;;;0.85;0.20;;;20.70;47.50;;;;;;4992364;28;20184;-86
2022/01/08 02:01:11;;;;;;;0.43;0.20;;;20.70;47.50;;;;;;4992654;28;20453;-86
2022/01/08 02:03:37;;;;;;;0.68;0.20;;;20.70;47.50;;;;;;4991860;28;20047;-86
2022/01/08 02:06:03;;;;;;;0.60;0.20;;;20.70;47.50;;;;;;5008719;28;20038;-86
2022/01/08 02:08:29;;;;;;;0.70;0.25;;;20.70;47.50;;;;;;4992687;28;20058;-86
2022/01/08 02:10:54;;;;;;;0.60;0.20;;;20.70;47.50;;;;;;4991647;28;20049;-86
2022/01/08 02:13:24;;;;;;;0.38;0.13;;;20.70;47.50;;;;;;5001554;28;20070;-86
2022/01/08 02:15:54;;;;;;;0.98;0.30;;;20.70;47.40;;;;;;4953435;28;20058;-86
2022/01/08 02:18:25;;;;;;;0.60;0.20;;;20.70;47.40;;;;;;4969251;28;20145;-87
2022/01/08 02:20:51;;;;;;;1.65;0.20;;;20.70;47.40;;;;;;4969793;28;20054;-87
2022/01/08 02:23:17;;;;;;;0.68;0.10;;;20.70;47.50;;;;;;4969630;28;20066;-86
2022/01/08 02:25:42;;;;;;;0.80;0.20;;;20.70;47.50;;;;;;4968676;28;20046;-87
2022/01/08 02:28:08;;;;;;;0.57;0.20;;;20.60;47.40;;;;;;4969971;28;20047;-86
2022/01/08 02:30:34;;;;;;;1.67;0.40;;;20.60;47.40;;;;;;4969694;28;20510;-86
2022/01/08 02:32:59;;;;;;;0.68;0.20;;;20.60;47.50;;;;;;4968876;28;20055;-86
2022/01/08 02:35:25;;;;;;;1.17;0.25;;;20.70;47.50;;;;;;4969342;28;20050;-86
2022/01/08 02:37:52;;;;;;;0.75;0.30;;;20.60;47.40;;;;;;4969652;28;20101;-86
2022/01/08 02:40:19;;;;;;;0.70;0.20;;;20.60;47.40;;;;;;4962656;28;20058;-86
2022/01/08 02:42:53;;;;;;;0.90;0.38;;;20.60;47.40;;;;;;4972950;28;20046;-86
2022/01/08 02:45:20;;;;;;;0.85;0.25;;;20.60;47.40;;;;;;4972757;28;20050;-86
2022/01/08 02:47:46;;;;;;;0.90;0.22;;;20.60;47.40;;;;;;4971771;28;20054;-86
2022/01/08 02:50:12;;;;;;;0.77;0.20;;;21.50;47.90;;;;;;4972635;28;20047;-86
2022/01/08 02:52:41;;;;;;;0.40;0.15;;;20.60;47.40;;;;;;4972383;28;20405;-87
2022/01/08 02:55:07;;;;;;;1.02;0.20;;;20.60;47.40;;;;;;4972691;28;20449;-86
2022/01/08 02:57:33;;;;;;;0.55;0.10;;;20.60;47.50;;;;;;4972588;28;20046;-86
2022/01/08 02:59:59;;;;;;;0.43;0.20;;;20.60;47.40;;;;;;4971805;28;20057;-86
2022/01/08 03:02:24;;;;;;;0.52;0.20;;;20.60;47.50;;;;;;4972500;28;20044;-86
2022/01/08 03:04:50;;;;;;;0.68;0.28;;;20.60;47.50;;;;;;4972495;28;20042;-86
2022/01/08 03:07:15;;;;;;;0.38;0.10;;;21.10;47.70;;;;;;4971930;28;20434;-87
2022/01/08 03:09:42;;;;;;;0.63;0.30;;;20.60;47.50;;;;;;4972654;28;20047;-86
2022/01/08 03:12:08;;;;;;;0.82;0.30;;;20.60;47.50;;;;;;4972105;28;20118;-86
2022/01/08 03:14:34;;;;;;;0.95;0.30;;;20.60;47.50;;;;;;4988220;28;20145;-86
2022/01/08 03:17:00;;;;;;;0.82;0.20;;;20.60;47.50;;;;;;4994010;28;20169;-86
2022/01/08 03:19:25;;;;;;;0.68;0.20;;;20.60;47.50;;;;;;4991952;28;20084;-87
2022/01/08 03:21:53;;;;;;;0.38;0.20;;;20.60;47.50;;;;;;4991425;28;20053;-87
2022/01/08 03:24:27;;;;;;;0.60;0.20;;;20.60;47.50;;;;;;4972068;28;20046;-86
2022/01/08 03:26:53;;;;;;;1.08;0.20;;;20.60;47.50;;;;;;4991781;28;20128;-86
2022/01/08 03:29:18;;;;;;;0.47;0.20;;;20.50;47.40;;;;;;4991388;28;20132;-86
2022/01/08 03:31:44;;;;;;;1.00;0.20;;;20.60;47.50;;;;;;4991912;28;20501;-88
2022/01/08 03:34:09;;;;;;;0.25;0.10;;;20.60;47.50;;;;;;4992206;28;20449;-84
2022/01/08 03:36:35;;;;;;;1.77;0.22;;;20.60;47.50;;;;;;4991521;28;20144;-84
2022/01/08 03:39:00;;;;;;;0.40;0.20;;;20.60;47.50;;;;;;4991758;28;20088;-85
2022/01/08 03:41:26;;;;;;;0.95;0.20;;;20.60;47.50;;;;;;4991602;28;20042;-85
2022/01/08 03:43:52;;;;;;;0.60;0.30;;;20.60;47.60;;;;;;4982627;28;20468;-85
2022/01/08 03:46:21;;;;;;;0.30;0.20;;;21.20;47.80;;;;;;4991564;28;20081;-86
2022/01/08 03:49:13;;;;;;;0.38;0.20;;;20.60;47.50;;;;;;4994296;28;20053;-85
2022/01/08 03:51:33;;;;;;;0.65;0.30;;;20.60;47.60;;;;;;4994523;28;20147;-85
2022/01/08 03:53:59;;;;;;;0.30;0.20;;;20.60;47.50;;;;;;5011903;28;20529;-85
2022/01/08 03:56:24;;;;;;;0.75;0.20;;;20.60;47.50;;;;;;5010534;28;20722;-85
2022/01/08 03:58:50;;;;;;;0.45;0.20;;;21.40;48.60;;;;;;4995067;28;20048;-86
2022/01/08 04:01:16;;;;;;;0.20;0.10;;;20.60;47.50;;;;;;4989636;28;20104;-86
2022/01/08 04:03:41;;;;;;;0.63;0.10;;;20.60;47.50;;;;;;4955159;28;20042;-85
2022/01/08 04:06:07;;;;;;;0.85;0.30;;;20.60;47.50;;;;;;4971815;28;20045;-86
2022/01/08 04:08:32;;;;;;;0.60;0.20;;;20.60;47.50;;;;;;4956069;28;20047;-85
2022/01/08 04:10:58;;;;;;;1.60;0.20;;;20.60;47.50;;;;;;4954979;28;20084;-85
2022/01/08 04:13:28;;;;;;;1.20;0.40;;;20.60;48.20;;;;;;4955704;28;20138;-85
2022/01/08 04:15:59;;;;;;;0.95;0.22;;;20.60;47.50;;;;;;4955575;28;20053;-84
2022/01/08 04:18:25;;;;;;;0.93;0.20;;;20.60;47.50;;;;;;4955008;28;20489;-86
2022/01/08 04:23:36;;;;;;;0.80;0.30;;;20.60;47.50;;;;;;4916255;28;20059;-85
2022/01/08 04:26:02;;;;;;;1.40;0.30;;;20.60;47.50;;;;;;4954819;28;20518;-85
2022/01/08 04:28:28;;;;;;;0.63;0.30;;;21.10;47.80;;;;;;4965155;28;20058;-85
2022/01/08 04:30:53;;;;;;;0.40;0.20;;;20.60;47.50;;;;;;4990653;28;20051;-85
2022/01/08 04:33:20;;;;;;;0.60;0.30;;;20.60;47.50;;;;;;4967859;28;20543;-89
2022/01/08 04:35:45;;;;;;;1.15;0.20;;;20.60;47.50;;;;;;4955613;28;20055;-89
2022/01/08 04:38:12;;;;;;;1.38;0.28;;;20.60;47.50;;;;;;4954981;28;20588;-85
2022/01/08 04:40:38;;;;;;;1.20;0.20;;;20.60;47.50;;;;;;4955138;28;20051;-85
2022/01/08 04:43:03;;;;;;;0.40;0.20;;;20.50;47.40;;;;;;4955070;28;20076;-84
2022/01/08 04:45:30;;;;;;;0.63;0.13;;;20.50;47.50;;;;;;4954359;28;20130;-85
2022/01/08 04:47:59;;;;;;;0.98;0.25;;;20.50;47.40;;;;;;4955440;28;20055;-85
2022/01/08 04:50:25;;;;;;;0.95;0.20;;;21.60;48.00;;;;;;4954691;28;20047;-85
2022/01/08 04:52:50;;;;;;;1.23;0.30;;;20.50;47.40;;;;;;4954171;28;20803;-84
2022/01/08 04:55:16;;;;;;;0.77;0.20;;;20.80;47.60;;;;;;4955350;28;20050;-85
2022/01/08 04:57:42;;;;;;;0.68;0.32;;;20.50;47.40;;;;;;4969972;28;20043;-85
2022/01/08 05:00:08;;;;;;;1.00;0.30;;;20.90;47.60;;;;;;4954269;28;20157;-85
2022/01/08 05:02:34;;;;;;;1.00;0.40;;;20.50;47.50;;;;;;4972099;28;20097;-85
2022/01/08 05:04:59;;;;;;;0.65;0.38;;;20.50;47.50;;;;;;4973820;28;20145;-85
2022/01/08 05:07:25;;;;;;;1.13;0.30;;;20.50;47.50;;;;;;4973334;28;20060;-85
2022/01/08 05:09:50;;;;;;;0.95;0.10;;;20.60;47.50;;;;;;4987321;28;20057;-85
2022/01/08 05:12:16;;;;;;;0.82;0.28;;;20.50;47.50;;;;;;4993686;28;20042;-85
2022/01/08 05:14:44;;;;;;;1.33;0.38;;;20.60;47.50;;;;;;5009042;28;20445;-86
2022/01/08 05:17:09;;;;;;;1.35;0.25;;;20.50;47.50;;;;;;5009486;28;20084;-85
2022/01/08 05:19:48;;;;;;;0.60;0.15;;;20.50;47.50;;;;;;5009375;28;20077;-85
2022/01/08 05:22:26;;;;;;;0.85;0.30;;;20.60;47.50;;;;;;5008903;28;20049;-85
2022/01/08 05:24:53;;;;;;;1.02;0.28;;;20.50;47.50;;;;;;5003261;28;20056;-85
2022/01/08 05:27:18;;;;;;;0.75;0.30;;;20.60;47.50;;;;;;5008827;28;20519;-85
2022/01/08 05:29:44;;;;;;;0.45;0.15;;;20.60;47.50;;;;;;5009879;28;20037;-85
2022/01/08 05:32:16;;;;;;;0.45;0.20;;;20.60;47.60;;;;;;5009107;28;20164;-85
2022/01/08 05:34:47;;;;;;;1.10;0.22;;;20.60;47.50;;;;;;5008472;28;20081;-84
2022/01/08 05:37:12;;;;;;;0.28;0.15;;;20.60;47.50;;;;;;5009220;28;20405;-85
2022/01/08 05:39:38;;;;;;;0.05;0.05;;;21.40;48.00;;;;;;5009458;28;20054;-85
2022/01/08 05:42:04;;;;;;;1.10;0.22;;;20.60;47.60;;;;;;4992384;28;20038;-85
2022/01/08 05:44:29;;;;;;;0.50;0.13;;;20.60;47.50;;;;;;4992546;28;20045;-85
2022/01/08 05:46:55;;;;;;;0.40;0.20;;;20.60;47.60;;;;;;5009110;28;20046;-85
2022/01/08 05:49:20;;;;;;;0.43;0.20;;;20.60;47.60;;;;;;5006859;28;20042;-85
2022/01/08 05:51:46;;;;;;;0.75;0.20;;;20.60;47.60;;;;;;5007697;28;20050;-85
2022/01/08 05:54:11;;;;;;;0.73;0.30;;;20.70;47.60;;;;;;4962437;28;20089;-86
2022/01/08 05:56:37;;;;;;;0.50;0.10;;;20.70;47.60;;;;;;4969163;28;20046;-85
2022/01/08 05:59:03;;;;;;;0.32;0.20;;;20.70;47.60;;;;;;4968783;28;20058;-85
2022/01/08 06:01:28;;;;;;;1.08;0.17;;;21.50;48.00;;;;;;4949609;28;20392;-85
2022/01/08 06:03:57;;;;;;;1.20;0.30;;;20.70;47.60;;;;;;4956195;28;20418;-85
2022/01/08 06:06:22;;;;;;;1.23;0.20;;;20.70;47.60;;;;;;4985441;28;20058;-85
2022/01/08 06:08:48;;;;;;;0.60;0.25;;;20.70;47.60;;;;;;5001242;28;20069;-85
2022/01/08 06:11:14;;;;;;;0.77;0.28;;;20.80;47.70;;;;;;4972137;28;20042;-85
2022/01/08 06:13:39;;;;;;;0.73;0.25;;;20.80;47.70;;;;;;4972696;28;20508;-85
2022/01/08 06:16:05;;;;;;;0.60;0.10;;;20.80;47.70;;;;;;5005046;28;20048;-84
2022/01/08 06:18:31;;;;;;;0.50;0.30;;;20.80;47.70;;;;;;4972341;28;20089;-85
2022/01/08 06:20:59;;;;;;;0.85;0.20;;;20.90;47.70;;;;;;5006023;28;20054;-85
2022/01/08 06:23:27;;;;;;;0.35;0.17;;;20.90;47.70;;;;;;4956509;28;20049;-86
2022/01/08 06:25:53;;;;;;;0.30;0.20;;;20.90;47.70;;;;;;4972816;28;20156;-85
2022/01/08 06:28:19;;;;;;;0.68;0.20;;;20.90;47.70;;;;;;4972637;28;20506;-85
2022/01/08 06:30:44;;;;;;;0.43;0.20;;;20.90;47.70;;;;;;4973686;28;20124;-85
2022/01/08 06:33:10;;;;;;;0.43;0.20;;;21.00;47.70;;;;;;4977351;28;20064;-86
2022/01/08 06:35:35;;;;;;;0.43;0.20;;;21.00;47.70;;;;;;4975512;28;20406;-85
2022/01/08 06:38:01;;;;;;;0.50;0.20;;;21.00;47.70;;;;;;4986083;28;20060;-85
2022/01/08 06:40:26;;;;;;;0.20;0.10;;;21.00;47.60;;;;;;4997330;28;20112;-85
2022/01/08 06:42:52;;;;;;;0.55;0.20;;;21.10;47.70;;;;;;4972180;28;20043;-85
2022/01/08 06:45:17;;;;;;;0.75;0.30;;;21.10;47.70;;;;;;4971576;28;20054;-86
2022/01/08 06:47:45;;;;;;;1.30;0.30;;;21.10;47.60;;;;;;4972151;28;20050;-85
2022/01/08 06:50:11;;;;;;;0.80;0.30;;;21.10;47.60;;;;;;4972095;28;20050;-85
2022/01/08 06:52:37;;;;;;;0.50;0.20;;;21.20;47.60;;;;;;4971481;28;20081;-85
2022/01/08 06:55:03;;;;;;;0.45;0.20;;;21.20;47.60;;;;;;4972544;28;20128;-85
2022/01/08 06:57:28;;;;;;;0.65;0.20;;;21.20;47.50;;;;;;4972733;28;20058;-85
2022/01/08 06:59:54;;;;;;;1.45;0.20;;;21.20;47.40;;;;;;4971152;28;20050;-85
2022/01/08 07:02:19;;;;;;;0.73;0.20;;;21.20;47.40;;;;;;4972184;28;20561;-91
2022/01/08 07:04:45;;;;;;;0.60;0.20;;;21.20;47.40;;;;;;4971284;28;20058;-90
2022/01/08 07:07:11;;;;;;;0.50;0.20;;;21.20;47.40;;;;;;4972444;28;20046;-88
2022/01/08 07:09:36;;;;;;;0.40;0.20;;;21.20;47.40;;;;;;4972971;28;20120;-88
2022/01/08 07:12:02;;;;;;;0.40;0.20;;;22.30;47.90;;;;;;4973607;28;20092;-90
2022/01/08 07:14:27;;;;;;;0.88;0.20;;;21.20;47.30;;;;;;4972361;28;20093;-89
2022/01/08 07:16:58;;;;;;;0.68;0.10;;;21.30;47.40;;;;;;4971839;28;20083;-88
2022/01/08 07:19:23;;;;;;;0.77;0.20;;;21.20;47.30;;;;;;4973469;28;20050;-89
2022/01/08 07:21:49;;;;;;;0.85;0.25;;;21.30;47.30;;;;;;4989091;28;20058;-88
2022/01/08 07:24:14;;;;;;;0.82;0.20;;;21.20;47.30;;;;;;4995272;28;20052;-86
2022/01/08 07:26:40;;;;;;;0.90;0.30;;;21.30;47.30;;;;;;5009877;28;20058;-86
2022/01/08 07:29:06;;;;;;;0.63;0.20;;;21.30;47.30;;;;;;5011076;28;20137;-87
2022/01/08 07:31:31;;;;;;;0.73;0.30;;;21.30;47.30;;;;;;5011294;28;20100;-87
2022/01/08 07:33:57;;;;;;;1.70;0.20;;;21.20;47.20;;;;;;5011782;28;20049;-87
2022/01/08 07:36:23;;;;;;;0.98;0.25;;;21.20;47.20;;;;;;5001345;28;20482;-87
2022/01/08 07:38:48;;;;;;;0.43;0.17;;;21.30;47.30;;;;;;4975693;28;20053;-86
2022/01/08 07:41:14;;;;;;;0.55;0.20;;;21.20;47.20;;;;;;4975267;28;20046;-86
2022/01/08 07:43:40;;;;;;;1.05;0.30;;;21.30;47.20;;;;;;4975231;28;20660;-87
2022/01/08 07:46:08;;;;;;;0.90;0.40;;;21.20;47.10;;;;;;4974316;28;20069;-88
2022/01/08 07:48:34;;;;;;;0.45;0.20;;;21.20;47.10;;;;;;4974709;28;20092;-87
2022/01/08 07:50:59;;;;;;;1.50;0.30;;;21.20;47.00;;;;;;4974998;28;20062;-88
2022/01/08 07:53:25;;;;;;;2.15;0.40;;;21.20;47.00;;;;;;4975213;28;20046;-87
2022/01/08 07:55:51;;;;;;;1.92;0.40;;;21.20;47.00;;;;;;4979558;28;20132;-88
2022/01/08 07:58:20;;;;;;;0.93;0.30;;;21.90;47.40;;;;;;4995019;28;20100;-88
2022/01/08 08:00:49;;;;;;;0.95;0.30;;;21.20;47.00;;;;;;4977890;28;20085;-88
2022/01/08 08:03:15;;;;;;;0.63;0.20;;;21.20;47.00;;;;;;4974819;28;20046;-88
2022/01/08 08:05:40;;;;;;;1.63;0.35;;;21.20;47.00;;;;;;4975140;28;20054;-87
2022/01/08 08:08:06;;;;;;;1.60;0.30;;;21.20;47.00;;;;;;4981798;28;20046;-88
2022/01/08 08:10:32;;;;;;;2.80;0.32;;;21.20;47.00;;;;;;4991880;28;20053;-87
2022/01/08 08:12:58;;;;;;;1.95;0.50;;;21.20;47.00;;;;;;4994272;28;20052;-88
2022/01/08 08:15:24;;;;;;;1.85;0.30;;;21.20;47.00;;;;;;4997532;28;20050;-85
2022/01/08 08:17:49;;;;;;;1.10;0.40;;;21.20;47.00;;;;;;4993655;28;20056;-87
2022/01/08 08:20:15;;;;;;;1.90;0.40;;;21.20;46.90;;;;;;4993562;28;20096;-88
2022/01/08 08:22:40;;;;;;;2.22;0.40;;;21.20;46.90;;;;;;5011988;28;20058;-88
2022/01/08 08:25:07;;;;;;;0.95;0.40;;;21.20;46.90;;;;;;4993574;28;20072;-86
2022/01/08 08:27:33;;;;;;;2.78;0.45;;;21.10;46.80;;;;;;4994608;28;20057;-88
2022/01/08 08:29:58;;;;;;;1.77;0.52;;;21.10;46.90;;;;;;5008134;28;20054;-87
2022/01/08 08:32:27;;;;;;;2.63;0.43;;;21.10;46.90;;;;;;4990064;28;20054;-88
2022/01/08 08:34:52;;;;;;;2.03;0.30;;;21.10;46.90;;;;;;4993758;28;20046;-87
2022/01/08 08:37:18;;;;;;;1.60;0.52;;;21.10;46.90;;;;;;4993219;28;20490;-85
2022/01/08 08:39:43;;;;;;;1.70;0.50;;;21.10;46.90;;;;;;4993841;28;20049;-83
2022/01/08 08:42:09;;;;;;;1.58;0.40;;;21.10;46.80;;;;;;4993806;28;20553;-87
2022/01/08 08:44:34;;;;;;;6.85;0.90;;;21.10;46.80;;;;;;4993451;28;20413;-86
2022/01/08 08:47:00;;;;;;;3.88;1.00;;;21.10;46.60;;;;;;4993253;28;20050;-89
2022/01/08 08:49:26;;;;;;;1.88;0.77;;;21.10;46.60;;;;;;5010055;28;20371;-85
2022/01/08 08:51:52;;;;;;;3.60;0.70;;;21.10;46.60;;;;;;4992024;28;20072;-89
2022/01/08 08:54:17;;;;;;;5.65;0.70;;;22.10;47.20;;;;;;4994277;28;20050;-90
2022/01/08 08:56:43;;;;;;;3.88;0.70;;;21.00;46.60;;;;;;4993878;28;20061;-87
2022/01/08 08:59:09;;;;;;;3.85;0.70;;;21.10;46.60;;;;;;4969220;28;20054;-86
2022/01/08 09:01:35;;;;;;;3.70;0.70;;;21.10;46.60;;;;;;4963342;28;20686;-85
2022/01/08 09:04:00;;;;;;;2.60;0.60;;;21.00;46.60;;;;;;4990077;28;20191;-86
2022/01/08 09:06:26;;;;;;;2.70;0.60;;;21.10;46.60;;;;;;4993652;28;20130;-86
2022/01/08 09:08:53;;;;;;;3.08;0.55;;;21.00;46.60;;;;;;4994580;28;20053;-86
2022/01/08 09:11:18;;;;;;;4.10;0.50;;;20.50;46.30;;;;;;4992677;28;20053;-89
2022/01/08 09:13:44;;;;;;;1.42;0.55;;;21.90;47.00;;;;;;5018157;28;20041;-90
2022/01/08 09:16:10;;;;;;;2.08;0.57;;;21.00;46.60;;;;;;5019825;28;20049;-90
2022/01/08 09:18:36;;;;;;;4.68;0.70;;;21.00;46.60;;;;;;5016568;28;20044;-90
2022/01/08 09:21:02;;;;;;;2.03;0.52;;;21.00;46.60;;;;;;5013487;28;20417;-90
2022/01/08 09:23:28;;;;;;;1.40;0.43;;;20.40;46.30;;;;;;5013543;28;20042;-89
2022/01/08 09:25:53;;;;;;;1.70;0.57;;;21.00;46.60;;;;;;5013505;28;20054;-90
2022/01/08 09:28:19;;;;;;;1.88;0.70;;;21.00;46.60;;;;;;5012921;28;20037;-90
2022/01/08 09:30:45;;;;;;;2.70;0.60;;;21.00;46.70;;;;;;5013368;28;20049;-90
2022/01/08 09:33:11;;;;;;;2.22;0.40;;;21.00;46.70;;;;;;4997617;28;20053;-89
2022/01/08 09:35:36;;;;;;;2.20;0.70;;;21.00;46.70;;;;;;5013481;28;20502;-90
2022/01/08 09:38:02;;;;;;;1.92;0.47;;;22.50;47.50;;;;;;4993549;28;20034;-90
2022/01/08 09:40:28;;;;;;;3.33;0.57;;;21.10;46.80;;;;;;5015409;28;20060;-90
2022/01/08 09:42:54;;;;;;;0.77;0.22;;;21.00;46.70;;;;;;5001382;28;20052;-89
2022/01/08 09:45:20;;;;;;;3.22;0.68;;;21.00;46.70;;;;;;4976843;28;20045;-90
2022/01/08 09:47:45;;;;;;;2.42;0.50;;;21.10;46.70;;;;;;4991723;28;20137;-90
2022/01/08 09:50:11;;;;;;;1.63;0.45;;;21.00;46.70;;;;;;4992399;28;20705;-89
2022/01/08 09:52:37;;;;;;;2.60;0.45;;;21.00;46.70;;;;;;4990286;28;20056;-89
2022/01/08 09:55:04;;;;;;;1.23;0.60;;;21.00;46.60;;;;;;4992289;28;20054;-84
2022/01/08 09:57:29;;;;;;;5.30;1.17;;;21.10;46.70;;;;;;4992963;28;20058;-89
2022/01/08 09:59:55;;;;;;;2.33;0.77;;;21.10;46.10;;;;;;4977766;28;20042;-87
2022/01/08 10:02:21;;;;;;;2.50;0.63;;;21.00;46.00;;;;;;4999871;28;20046;-88
2022/01/08 10:04:47;;;;;;;4.03;0.60;;;21.00;46.10;;;;;;4981445;28;20524;-87
2022/01/08 10:07:16;;;;;;;3.92;0.70;;;20.90;46.10;;;;;;4995971;28;20102;-86
2022/01/08 10:10:12;;;;;;;1.95;0.70;;;20.90;46.20;;;;;;5006160;28;20070;-86
2022/01/08 10:12:53;;;;;;;3.40;0.70;;;20.90;46.30;;;;;;4990812;28;20486;-88
2022/01/08 10:18:32;;;;;;;10.27;0.95;;;20.90;46.40;;;;;;4984869;28;20129;-91
2022/01/08 10:20:58;;;;;;;3.53;0.50;;;20.90;46.50;;;;;;4991519;28;20050;-87
2022/01/08 10:23:31;;;;;;;4.25;0.68;;;21.50;47.00;;;;;;4991254;28;20038;-92
2022/01/08 10:26:05;;;;;;;3.40;0.43;;;20.90;46.80;;;;;;4992646;28;20129;-91
2022/01/08 10:28:33;;;;;;;1.63;0.45;;;21.20;47.10;;;;;;4991934;28;20402;-91
2022/01/08 10:31:09;;;;;;;1.75;0.40;;;21.30;47.10;;;;;;4994467;28;20080;-95
2022/01/08 10:33:35;;;;;;;2.70;0.55;;;21.00;47.00;;;;;;4994988;28;20054;-96
2022/01/08 10:36:01;;;;;;;1.40;0.50;;;21.10;47.00;;;;;;4994565;28;20108;-93
2022/01/08 10:38:27;;;;;;;1.92;0.60;;;22.20;47.50;;;;;;4992493;28;20045;-92
2022/01/08 10:40:52;;;;;;;1.58;0.40;;;21.20;46.90;;;;;;4992826;28;20057;-93
2022/01/08 10:43:28;;;;;;;2.30;0.63;;;21.20;46.60;;;;;;4994627;28;20042;-88
2022/01/08 10:45:55;;;;;;;3.05;0.60;;;21.20;46.40;;;;;;5013626;28;20060;-92
2022/01/08 10:48:28;;;;;;;2.35;0.55;;;21.30;46.40;;;;;;4996223;28;20058;-95
2022/01/08 10:50:55;;;;;;;1.88;0.50;;;22.60;47.10;;;;;;5007292;28;20054;-95
2022/01/08 10:53:20;;;;;;;1.95;0.50;;;21.30;46.40;;;;;;4971680;28;20042;-93
2022/01/08 10:55:46;;;;;;;2.55;0.68;;;21.30;46.40;;;;;;5014937;28;20052;-93
2022/01/08 10:58:12;;;;;;;1.55;0.50;;;21.40;46.50;;;;;;4984568;28;20058;-90
2022/01/08 11:00:37;;;;;;;2.53;0.40;;;21.40;46.50;;;;;;4995712;28;20044;-90
2022/01/08 11:03:03;;;;;;;2.58;0.60;;;21.40;46.50;;;;;;5012046;28;20501;-91
2022/01/08 11:05:28;;;;;;;3.58;0.60;;;21.40;46.50;;;;;;5010949;28;20068;-90
2022/01/08 11:07:54;;;;;;;4.40;0.60;;;21.40;46.50;;;;;;5011043;28;20541;-88
2022/01/08 11:10:21;;;;;;;2.88;0.45;;;21.40;46.50;;;;;;4994984;28;20053;-90
2022/01/08 11:12:47;;;;;;;3.80;0.50;;;21.40;46.40;;;;;;4997514;28;20085;-89
2022/01/08 11:17:50;;;;;;;3.58;0.88;;;21.50;46.40;;;;;;5011335;28;20089;-89
2022/01/08 11:20:18;;;;;;;2.90;0.70;;;21.50;46.30;;;;;;5009723;28;20062;-89
2022/01/08 11:22:45;;;;;;;2.05;0.50;;;21.50;46.30;;;;;;5011167;28;20064;-89
2022/01/08 11:25:17;;;;;;;2.13;0.50;;;21.50;46.20;;;;;;4997017;28;20088;-89
2022/01/08 11:27:52;;;;;;;2.17;0.60;;;21.50;46.20;;;;;;5010540;28;20037;-88
2022/01/08 11:30:20;;;;;;;2.38;0.50;;;21.50;46.10;;;;;;5011635;28;20181;-89
2022/01/08 11:32:47;;;;;;;2.55;0.93;;;21.50;46.10;;;;;;5011677;28;20789;-89
2022/01/08 11:35:14;;;;;;;1.63;0.40;;;22.00;46.30;;;;;;5010863;28;20405;-88
2022/01/08 11:37:45;;;;;;;1.65;0.50;;;21.50;46.10;;;;;;5011280;28;20057;-88
2022/01/08 11:40:11;;;;;;;;;;;21.50;46.10;;;;;;5002728;28;20038;-89
2022/01/08 11:42:38;;;;;;;3.55;0.70;;;21.50;46.10;;;;;;4994989;28;20288;-88
2022/01/08 11:45:04;;;;;;;2.20;0.47;;;21.50;46.00;;;;;;5010478;28;20532;-88
2022/01/08 11:47:30;;;;;;;3.92;0.70;;;21.50;46.10;;;;;;4978138;28;20077;-89
2022/01/08 11:49:56;;;;;;;2.08;0.50;;;21.40;46.00;;;;;;5010809;28;20085;-89
2022/01/08 11:52:23;;;;;;;0.88;0.30;;;21.40;46.00;;;;;;4994391;28;20062;-88
2022/01/08 11:54:50;;;;;;;1.85;0.50;;;21.40;46.00;;;;;;5010287;28;20136;-88
2022/01/08 11:57:17;;;;;;;2.38;0.47;;;21.40;45.90;;;;;;5011485;28;20100;-88
2022/01/08 11:59:43;;;;;;;1.77;0.40;;;21.70;46.10;;;;;;5011337;28;20053;-89
2022/01/08 12:02:10;;;;;;;1.17;0.40;;;21.40;45.90;;;;;;5010351;28;20046;-88
2022/01/08 12:04:36;;;;;;;1.20;0.40;;;21.40;45.90;;;;;;5010970;28;20215;-89
2022/01/08 12:07:25;;;;;;;2.28;0.55;;;21.40;45.90;;;;;;5009996;28;20536;-87
2022/01/08 12:10:22;;;;;;;0.88;0.45;;;21.30;45.70;;;;;;5010497;28;20809;-89
2022/01/08 12:13:01;;;;;;;2.67;0.57;;;21.30;45.70;;;;;;5010789;28;20046;-88
2022/01/08 12:15:57;;;;;;;3.10;0.85;;;21.30;45.70;;;;;;4993920;28;20057;-89
2022/01/08 12:18:29;;;;;;;1.08;0.32;;;21.30;45.60;;;;;;5010837;28;20128;-89
2022/01/08 12:21:10;;;;;;;5.35;0.80;;;21.00;46.10;;;;;;5010038;28;20149;-87
2022/01/08 12:23:37;;;;;;;1.90;0.50;;;21.80;46.10;;;;;;4989791;28;20476;-86
2022/01/08 12:26:32;;;;;;;2.28;0.60;;;21.30;46.40;;;;;;5001080;28;20591;-88
2022/01/08 12:29:36;;;;;;;3.15;0.50;;;21.20;45.80;;;;;;5008961;28;20140;-93
2022/01/08 12:32:40;;;;;;;1.73;0.50;;;21.20;45.90;;;;;;5010396;28;20572;-92
2022/01/08 12:35:23;;;;;;;2.55;0.60;;;21.20;45.80;;;;;;5011930;28;20093;-91
2022/01/08 12:38:42;;;;;;;1.55;0.40;;;19.10;44.70;;;;;;5009476;28;20493;-89
2022/01/08 12:41:47;;;;;;;2.25;0.50;;;20.70;45.60;;;;;;4930766;29;20054;-88
2022/01/08 12:44:38;;;;;;;2.22;0.50;;;21.20;45.90;;;;;;4934071;29;20055;-88
2022/01/08 12:47:04;;;;;;;1.70;0.60;;;20.60;45.50;;;;;;4932856;29;20062;-88
2022/01/08 12:49:29;;;;;;;2.00;0.50;;;21.90;46.40;;;;;;4933910;29;20295;-87
2022/01/08 12:51:58;;;;;;;1.65;0.50;;;20.50;45.60;;;;;;4932845;29;20062;-89
2022/01/08 12:54:26;;;;;;;1.27;0.60;;;20.80;46.00;;;;;;4929056;29;20107;-87
2022/01/08 12:57:05;;;;;;;2.88;0.70;;;22.50;46.80;;;;;;4932092;29;20048;-89
2022/01/08 13:00:01;;;;;;;4.70;2.60;;;22.80;46.80;;;;;;5003208;28;20061;-88
2022/01/08 13:02:36;;;;;;;4.65;2.03;;;20.90;44.80;;;;;;4993684;28;20054;-90
2022/01/08 13:05:06;;;;;;;6.03;1.90;;;18.70;44.20;;;;;;4996371;28;20054;-90
2022/01/08 13:07:52;;;;;;;5.20;1.50;;;20.90;45.80;;;;;;5026897;28;20053;-90
2022/01/08 13:10:19;;;;;;;4.40;1.40;;;20.80;45.10;;;;;;5010269;28;20054;-89
2022/01/08 13:13:11;;;;;;;3.75;1.10;;;20.90;45.70;;;;;;5012943;28;20057;-90
2022/01/08 13:15:46;;;;;;;3.25;1.02;;;20.80;45.20;;;;;;5004050;28;20062;-89